sensor_id;sensor_type;location;lat;lon;timestamp;temperature;humidity
23289;DHT22;11813;50.834;4.280;2023-05-07T00:00:37;17.50;99.90
23289;DHT22;11813;50.834;4.280;2023-05-07T00:03:03;17.60;99.90
23289;DHT22;11813;50.834;4.280;2023-05-07T00:05:29;17.60;99.90
23289;DHT22;11813;50.834;4.280;2023-05-07T00:07:55;17.60;99.90
23289;DHT22;11813;50.834;4.280;2023-05-07T00:10:20;17.60;99.90
23289;DHT22;11813;50.834;4.280;2023-05-07T00:12:46;17.60;99.90
23289;DHT22;11813;50.834;4.280;2023-05-07T00:15:12;17.60;99.90
23289;DHT22;11813;50.834;4.280;2023-05-07T00:17:38;17.60;99.90
23289;DHT22;11813;50.834;4.280;2023-05-07T00:20:04;17.60;99.90
23289;DHT22;11813;50.834;4.280;2023-05-07T00:22:31;17.60;99.90
23289;DHT22;11813;50.834;4.280;2023-05-07T00:24:57;17.60;99.90
23289;DHT22;11813;50.834;4.280;2023-05-07T00:27:24;17.60;99.90
23289;DHT22;11813;50.834;4.280;2023-05-07T00:29:49;17.60;99.90
23289;DHT22;11813;50.834;4.280;2023-05-07T00:32:15;17.60;99.90
23289;DHT22;11813;50.834;4.280;2023-05-07T00:34:41;17.50;99.90
23289;DHT22;11813;50.834;4.280;2023-05-07T00:37:06;17.50;99.90
23289;DHT22;11813;50.834;4.280;2023-05-07T00:39:35;17.50;99.90
23289;DHT22;11813;50.834;4.280;2023-05-07T00:42:01;17.50;99.90
23289;DHT22;11813;50.834;4.280;2023-05-07T00:44:28;17.50;99.90
23289;DHT22;11813;50.834;4.280;2023-05-07T00:46:54;17.50;99.90
23289;DHT22;11813;50.834;4.280;2023-05-07T00:49:20;17.50;99.90
23289;DHT22;11813;50.834;4.280;2023-05-07T00:51:46;17.50;99.90
23289;DHT22;11813;50.834;4.280;2023-05-07T00:54:12;17.50;99.90
23289;DHT22;11813;50.834;4.280;2023-05-07T00:56:38;17.50;99.90
23289;DHT22;11813;50.834;4.280;2023-05-07T00:59:05;17.50;99.90
23289;DHT22;11813;50.834;4.280;2023-05-07T01:01:32;17.50;99.90
23289;DHT22;11813;50.834;4.280;2023-05-07T01:03:57;17.50;99.90
23289;DHT22;11813;50.834;4.280;2023-05-07T01:06:24;17.40;99.90
23289;DHT22;11813;50.834;4.280;2023-05-07T01:08:51;17.40;99.90
23289;DHT22;11813;50.834;4.280;2023-05-07T01:11:18;17.40;99.90
23289;DHT22;11813;50.834;4.280;2023-05-07T01:13:46;17.30;99.90
23289;DHT22;11813;50.834;4.280;2023-05-07T01:16:13;17.20;99.90
23289;DHT22;11813;50.834;4.280;2023-05-07T01:18:38;17.20;99.90
23289;DHT22;11813;50.834;4.280;2023-05-07T01:21:05;17.20;99.90
23289;DHT22;11813;50.834;4.280;2023-05-07T01:23:33;17.20;99.90
23289;DHT22;11813;50.834;4.280;2023-05-07T01:26:00;17.20;99.90
23289;DHT22;11813;50.834;4.280;2023-05-07T01:28:26;17.20;99.90
23289;DHT22;11813;50.834;4.280;2023-05-07T01:30:54;17.10;99.90
23289;DHT22;11813;50.834;4.280;2023-05-07T01:33:22;17.00;99.90
23289;DHT22;11813;50.834;4.280;2023-05-07T01:35:51;16.90;99.90
23289;DHT22;11813;50.834;4.280;2023-05-07T01:38:18;16.80;99.90
23289;DHT22;11813;50.834;4.280;2023-05-07T01:40:44;16.80;99.90
23289;DHT22;11813;50.834;4.280;2023-05-07T01:43:10;16.80;99.90
23289;DHT22;11813;50.834;4.280;2023-05-07T01:45:36;16.80;99.90
23289;DHT22;11813;50.834;4.280;2023-05-07T01:48:03;16.80;99.90
23289;DHT22;11813;50.834;4.280;2023-05-07T01:50:30;16.80;99.90
23289;DHT22;11813;50.834;4.280;2023-05-07T01:52:56;16.70;99.90
23289;DHT22;11813;50.834;4.280;2023-05-07T01:55:22;16.70;99.90
23289;DHT22;11813;50.834;4.280;2023-05-07T01:57:48;16.60;99.90
23289;DHT22;11813;50.834;4.280;2023-05-07T02:00:13;16.60;99.90
23289;DHT22;11813;50.834;4.280;2023-05-07T02:02:39;16.60;99.90
23289;DHT22;11813;50.834;4.280;2023-05-07T02:05:05;16.60;99.90
23289;DHT22;11813;50.834;4.280;2023-05-07T02:07:31;16.50;99.90
23289;DHT22;11813;50.834;4.280;2023-05-07T02:09:56;16.50;99.90
23289;DHT22;11813;50.834;4.280;2023-05-07T02:12:22;16.50;99.90
23289;DHT22;11813;50.834;4.280;2023-05-07T02:14:49;16.50;99.90
23289;DHT22;11813;50.834;4.280;2023-05-07T02:17:14;16.40;99.90
23289;DHT22;11813;50.834;4.280;2023-05-07T02:19:40;16.30;99.90
23289;DHT22;11813;50.834;4.280;2023-05-07T02:22:06;16.30;99.90
23289;DHT22;11813;50.834;4.280;2023-05-07T02:24:32;16.30;99.90
23289;DHT22;11813;50.834;4.280;2023-05-07T02:26:57;16.30;99.90
23289;DHT22;11813;50.834;4.280;2023-05-07T02:29:23;16.30;99.90
23289;DHT22;11813;50.834;4.280;2023-05-07T02:31:48;16.20;99.90
23289;DHT22;11813;50.834;4.280;2023-05-07T02:34:18;16.30;99.90
23289;DHT22;11813;50.834;4.280;2023-05-07T02:36:44;16.20;99.90
23289;DHT22;11813;50.834;4.280;2023-05-07T02:39:11;16.30;99.90
23289;DHT22;11813;50.834;4.280;2023-05-07T02:41:37;16.30;99.90
23289;DHT22;11813;50.834;4.280;2023-05-07T02:44:02;16.30;99.90
23289;DHT22;11813;50.834;4.280;2023-05-07T02:46:28;16.20;99.90
23289;DHT22;11813;50.834;4.280;2023-05-07T02:48:54;16.20;99.90
23289;DHT22;11813;50.834;4.280;2023-05-07T02:51:21;16.20;99.90
23289;DHT22;11813;50.834;4.280;2023-05-07T02:53:47;16.20;99.90
23289;DHT22;11813;50.834;4.280;2023-05-07T02:56:12;16.10;99.90
23289;DHT22;11813;50.834;4.280;2023-05-07T02:58:38;16.10;99.90
23289;DHT22;11813;50.834;4.280;2023-05-07T03:01:10;16.10;99.90
23289;DHT22;11813;50.834;4.280;2023-05-07T03:03:36;16.10;99.90
23289;DHT22;11813;50.834;4.280;2023-05-07T03:06:02;16.10;99.90
23289;DHT22;11813;50.834;4.280;2023-05-07T03:08:27;16.20;99.90
23289;DHT22;11813;50.834;4.280;2023-05-07T03:10:53;16.20;99.90
23289;DHT22;11813;50.834;4.280;2023-05-07T03:13:19;16.20;99.90
23289;DHT22;11813;50.834;4.280;2023-05-07T03:15:44;16.20;99.90
23289;DHT22;11813;50.834;4.280;2023-05-07T03:18:10;16.20;99.90
23289;DHT22;11813;50.834;4.280;2023-05-07T03:20:36;16.20;99.90
23289;DHT22;11813;50.834;4.280;2023-05-07T03:23:02;16.20;99.90
23289;DHT22;11813;50.834;4.280;2023-05-07T03:25:28;16.20;99.90
23289;DHT22;11813;50.834;4.280;2023-05-07T03:27:55;16.20;99.90
23289;DHT22;11813;50.834;4.280;2023-05-07T03:30:21;16.10;99.90
23289;DHT22;11813;50.834;4.280;2023-05-07T03:32:46;16.10;99.90
23289;DHT22;11813;50.834;4.280;2023-05-07T03:35:12;16.10;99.90
23289;DHT22;11813;50.834;4.280;2023-05-07T03:37:38;16.10;99.90
23289;DHT22;11813;50.834;4.280;2023-05-07T03:40:05;16.10;99.90
23289;DHT22;11813;50.834;4.280;2023-05-07T03:42:31;16.20;99.90
23289;DHT22;11813;50.834;4.280;2023-05-07T03:44:56;16.20;99.90
23289;DHT22;11813;50.834;4.280;2023-05-07T03:47:22;16.20;99.90
23289;DHT22;11813;50.834;4.280;2023-05-07T03:49:48;16.20;99.90
23289;DHT22;11813;50.834;4.280;2023-05-07T03:52:14;16.30;99.90
23289;DHT22;11813;50.834;4.280;2023-05-07T03:54:40;16.30;99.90
23289;DHT22;11813;50.834;4.280;2023-05-07T03:57:06;16.40;99.90
23289;DHT22;11813;50.834;4.280;2023-05-07T03:59:31;16.30;99.90
23289;DHT22;11813;50.834;4.280;2023-05-07T04:01:58;16.40;99.90
23289;DHT22;11813;50.834;4.280;2023-05-07T04:04:23;16.30;99.90
23289;DHT22;11813;50.834;4.280;2023-05-07T04:06:49;16.40;99.90
23289;DHT22;11813;50.834;4.280;2023-05-07T04:09:15;16.40;99.90
23289;DHT22;11813;50.834;4.280;2023-05-07T04:11:40;16.40;99.90
23289;DHT22;11813;50.834;4.280;2023-05-07T04:14:06;16.50;99.90
23289;DHT22;11813;50.834;4.280;2023-05-07T04:16:32;16.60;99.90
23289;DHT22;11813;50.834;4.280;2023-05-07T04:18:57;16.50;99.90
23289;DHT22;11813;50.834;4.280;2023-05-07T04:21:23;16.50;99.90
23289;DHT22;11813;50.834;4.280;2023-05-07T04:23:49;16.50;99.90
23289;DHT22;11813;50.834;4.280;2023-05-07T04:26:15;16.60;99.90
23289;DHT22;11813;50.834;4.280;2023-05-07T04:28:41;16.60;99.90
23289;DHT22;11813;50.834;4.280;2023-05-07T04:31:07;16.50;99.90
23289;DHT22;11813;50.834;4.280;2023-05-07T04:33:33;16.50;99.90
23289;DHT22;11813;50.834;4.280;2023-05-07T04:36:02;16.50;99.90
23289;DHT22;11813;50.834;4.280;2023-05-07T04:38:29;16.50;99.90
23289;DHT22;11813;50.834;4.280;2023-05-07T04:40:56;16.60;99.90
23289;DHT22;11813;50.834;4.280;2023-05-07T04:43:22;16.60;99.90
23289;DHT22;11813;50.834;4.280;2023-05-07T04:45:50;16.60;99.90
23289;DHT22;11813;50.834;4.280;2023-05-07T04:48:16;16.60;99.90
23289;DHT22;11813;50.834;4.280;2023-05-07T04:50:46;16.70;99.90
23289;DHT22;11813;50.834;4.280;2023-05-07T04:53:12;16.70;99.90
23289;DHT22;11813;50.834;4.280;2023-05-07T04:55:37;16.60;99.90
23289;DHT22;11813;50.834;4.280;2023-05-07T04:58:03;16.70;99.90
23289;DHT22;11813;50.834;4.280;2023-05-07T05:00:30;16.80;99.90
23289;DHT22;11813;50.834;4.280;2023-05-07T05:02:55;16.80;99.90
23289;DHT22;11813;50.834;4.280;2023-05-07T05:05:21;16.80;99.90
23289;DHT22;11813;50.834;4.280;2023-05-07T05:07:47;16.90;99.90
23289;DHT22;11813;50.834;4.280;2023-05-07T05:10:12;16.90;99.90
23289;DHT22;11813;50.834;4.280;2023-05-07T05:12:38;16.80;99.90
23289;DHT22;11813;50.834;4.280;2023-05-07T05:15:05;16.90;99.90
23289;DHT22;11813;50.834;4.280;2023-05-07T05:17:30;16.90;99.90
23289;DHT22;11813;50.834;4.280;2023-05-07T05:19:56;16.90;99.90
23289;DHT22;11813;50.834;4.280;2023-05-07T05:22:22;17.00;99.90
23289;DHT22;11813;50.834;4.280;2023-05-07T05:24:47;17.00;99.90
23289;DHT22;11813;50.834;4.280;2023-05-07T05:27:13;17.10;99.90
23289;DHT22;11813;50.834;4.280;2023-05-07T05:29:39;17.10;99.90
23289;DHT22;11813;50.834;4.280;2023-05-07T05:32:05;17.20;99.90
23289;DHT22;11813;50.834;4.280;2023-05-07T05:34:30;17.20;99.90
23289;DHT22;11813;50.834;4.280;2023-05-07T05:36:56;17.30;99.90
23289;DHT22;11813;50.834;4.280;2023-05-07T05:39:22;17.30;99.90
23289;DHT22;11813;50.834;4.280;2023-05-07T05:41:48;17.30;99.90
23289;DHT22;11813;50.834;4.280;2023-05-07T05:44:14;17.20;99.90
23289;DHT22;11813;50.834;4.280;2023-05-07T05:46:39;17.10;99.90
23289;DHT22;11813;50.834;4.280;2023-05-07T05:49:05;16.90;99.90
23289;DHT22;11813;50.834;4.280;2023-05-07T05:51:31;16.80;99.90
23289;DHT22;11813;50.834;4.280;2023-05-07T05:53:56;16.90;99.90
23289;DHT22;11813;50.834;4.280;2023-05-07T05:56:22;16.90;99.90
23289;DHT22;11813;50.834;4.280;2023-05-07T05:58:48;17.00;99.90
23289;DHT22;11813;50.834;4.280;2023-05-07T06:01:13;17.00;99.90
23289;DHT22;11813;50.834;4.280;2023-05-07T06:03:39;17.00;99.90
23289;DHT22;11813;50.834;4.280;2023-05-07T06:06:05;16.90;99.90
23289;DHT22;11813;50.834;4.280;2023-05-07T06:08:30;17.00;99.90
23289;DHT22;11813;50.834;4.280;2023-05-07T06:10:56;17.10;99.90
23289;DHT22;11813;50.834;4.280;2023-05-07T06:13:22;17.00;99.90
23289;DHT22;11813;50.834;4.280;2023-05-07T06:15:49;16.90;99.90
23289;DHT22;11813;50.834;4.280;2023-05-07T06:18:14;16.80;99.90
23289;DHT22;11813;50.834;4.280;2023-05-07T06:20:40;16.80;99.90
23289;DHT22;11813;50.834;4.280;2023-05-07T06:23:06;16.90;99.90
23289;DHT22;11813;50.834;4.280;2023-05-07T06:25:31;16.90;99.90
23289;DHT22;11813;50.834;4.280;2023-05-07T06:27:57;16.90;99.90
23289;DHT22;11813;50.834;4.280;2023-05-07T06:30:23;17.00;99.90
23289;DHT22;11813;50.834;4.280;2023-05-07T06:32:48;17.10;99.90
23289;DHT22;11813;50.834;4.280;2023-05-07T06:35:14;17.10;99.90
23289;DHT22;11813;50.834;4.280;2023-05-07T06:37:41;17.20;99.90
23289;DHT22;11813;50.834;4.280;2023-05-07T06:40:08;17.30;99.90
23289;DHT22;11813;50.834;4.280;2023-05-07T06:42:35;17.30;99.90
23289;DHT22;11813;50.834;4.280;2023-05-07T06:45:00;17.20;99.90
23289;DHT22;11813;50.834;4.280;2023-05-07T06:47:26;17.20;99.90
23289;DHT22;11813;50.834;4.280;2023-05-07T06:49:52;17.30;99.90
23289;DHT22;11813;50.834;4.280;2023-05-07T06:52:17;17.00;99.90
23289;DHT22;11813;50.834;4.280;2023-05-07T06:54:43;17.00;99.90
23289;DHT22;11813;50.834;4.280;2023-05-07T06:57:08;17.00;99.90
23289;DHT22;11813;50.834;4.280;2023-05-07T06:59:34;17.10;99.90
23289;DHT22;11813;50.834;4.280;2023-05-07T07:02:00;17.10;99.90
23289;DHT22;11813;50.834;4.280;2023-05-07T07:04:25;17.00;99.90
23289;DHT22;11813;50.834;4.280;2023-05-07T07:06:54;17.00;99.90
23289;DHT22;11813;50.834;4.280;2023-05-07T07:09:20;17.10;99.90
23289;DHT22;11813;50.834;4.280;2023-05-07T07:11:46;17.10;99.90
23289;DHT22;11813;50.834;4.280;2023-05-07T07:14:11;17.10;99.90
23289;DHT22;11813;50.834;4.280;2023-05-07T07:16:37;17.10;99.90
23289;DHT22;11813;50.834;4.280;2023-05-07T07:19:02;17.20;99.90
23289;DHT22;11813;50.834;4.280;2023-05-07T07:21:28;17.30;99.90
23289;DHT22;11813;50.834;4.280;2023-05-07T07:23:54;17.30;99.90
23289;DHT22;11813;50.834;4.280;2023-05-07T07:26:19;17.30;99.90
23289;DHT22;11813;50.834;4.280;2023-05-07T07:28:46;17.40;99.90
23289;DHT22;11813;50.834;4.280;2023-05-07T07:31:12;17.40;99.90
23289;DHT22;11813;50.834;4.280;2023-05-07T07:33:38;17.40;99.90
23289;DHT22;11813;50.834;4.280;2023-05-07T07:36:05;17.40;99.90
23289;DHT22;11813;50.834;4.280;2023-05-07T07:38:31;17.40;99.90
23289;DHT22;11813;50.834;4.280;2023-05-07T07:40:56;17.40;99.90
23289;DHT22;11813;50.834;4.280;2023-05-07T07:43:22;17.50;99.90
23289;DHT22;11813;50.834;4.280;2023-05-07T07:45:48;17.60;99.90
23289;DHT22;11813;50.834;4.280;2023-05-07T07:48:13;17.60;99.90
23289;DHT22;11813;50.834;4.280;2023-05-07T07:50:39;17.70;99.90
23289;DHT22;11813;50.834;4.280;2023-05-07T07:53:04;17.80;99.90
23289;DHT22;11813;50.834;4.280;2023-05-07T07:55:30;17.80;99.90
23289;DHT22;11813;50.834;4.280;2023-05-07T07:57:57;17.80;99.90
23289;DHT22;11813;50.834;4.280;2023-05-07T08:00:23;17.80;99.90
23289;DHT22;11813;50.834;4.280;2023-05-07T08:02:48;17.70;99.90
23289;DHT22;11813;50.834;4.280;2023-05-07T08:05:14;17.50;99.90
23289;DHT22;11813;50.834;4.280;2023-05-07T08:07:40;17.60;99.90
23289;DHT22;11813;50.834;4.280;2023-05-07T08:10:06;17.60;99.90
23289;DHT22;11813;50.834;4.280;2023-05-07T08:12:32;17.40;99.90
23289;DHT22;11813;50.834;4.280;2023-05-07T08:14:58;17.40;99.90
23289;DHT22;11813;50.834;4.280;2023-05-07T08:17:24;17.50;99.90
23289;DHT22;11813;50.834;4.280;2023-05-07T08:19:49;17.60;99.90
23289;DHT22;11813;50.834;4.280;2023-05-07T08:22:15;17.50;99.90
23289;DHT22;11813;50.834;4.280;2023-05-07T08:24:41;17.60;99.90
23289;DHT22;11813;50.834;4.280;2023-05-07T08:27:06;17.60;99.90
23289;DHT22;11813;50.834;4.280;2023-05-07T08:29:32;17.60;99.90
23289;DHT22;11813;50.834;4.280;2023-05-07T08:31:57;17.70;99.90
23289;DHT22;11813;50.834;4.280;2023-05-07T08:34:23;17.70;99.90
23289;DHT22;11813;50.834;4.280;2023-05-07T08:36:49;17.80;99.90
23289;DHT22;11813;50.834;4.280;2023-05-07T08:39:17;17.90;99.90
23289;DHT22;11813;50.834;4.280;2023-05-07T08:41:45;18.00;99.90
23289;DHT22;11813;50.834;4.280;2023-05-07T08:44:13;18.00;99.90
23289;DHT22;11813;50.834;4.280;2023-05-07T08:46:39;18.10;99.90
23289;DHT22;11813;50.834;4.280;2023-05-07T08:49:07;18.30;99.90
23289;DHT22;11813;50.834;4.280;2023-05-07T08:51:33;18.30;99.90
23289;DHT22;11813;50.834;4.280;2023-05-07T08:54:01;18.30;99.90
23289;DHT22;11813;50.834;4.280;2023-05-07T08:56:27;18.40;99.90
23289;DHT22;11813;50.834;4.280;2023-05-07T08:58:53;18.40;99.90
23289;DHT22;11813;50.834;4.280;2023-05-07T09:01:22;18.40;99.90
23289;DHT22;11813;50.834;4.280;2023-05-07T09:03:47;18.50;99.90
23289;DHT22;11813;50.834;4.280;2023-05-07T09:06:13;18.60;99.90
23289;DHT22;11813;50.834;4.280;2023-05-07T09:08:39;18.70;99.90
23289;DHT22;11813;50.834;4.280;2023-05-07T09:11:05;18.70;99.90
23289;DHT22;11813;50.834;4.280;2023-05-07T09:13:31;18.90;99.90
23289;DHT22;11813;50.834;4.280;2023-05-07T09:15:56;18.80;99.90
23289;DHT22;11813;50.834;4.280;2023-05-07T09:18:24;18.90;99.90
23289;DHT22;11813;50.834;4.280;2023-05-07T09:20:50;18.90;99.90
23289;DHT22;11813;50.834;4.280;2023-05-07T09:23:16;19.00;99.90
23289;DHT22;11813;50.834;4.280;2023-05-07T09:25:42;19.10;99.90
23289;DHT22;11813;50.834;4.280;2023-05-07T09:28:07;19.10;99.90
23289;DHT22;11813;50.834;4.280;2023-05-07T09:30:35;19.10;99.90
23289;DHT22;11813;50.834;4.280;2023-05-07T09:33:02;19.10;99.90
23289;DHT22;11813;50.834;4.280;2023-05-07T09:35:30;19.10;99.90
23289;DHT22;11813;50.834;4.280;2023-05-07T09:37:58;19.10;99.90
23289;DHT22;11813;50.834;4.280;2023-05-07T09:40:25;19.10;99.90
23289;DHT22;11813;50.834;4.280;2023-05-07T09:42:51;19.10;99.90
23289;DHT22;11813;50.834;4.280;2023-05-07T09:45:27;19.00;99.90
23289;DHT22;11813;50.834;4.280;2023-05-07T09:47:57;19.00;99.90
23289;DHT22;11813;50.834;4.280;2023-05-07T09:50:31;19.10;99.90
23289;DHT22;11813;50.834;4.280;2023-05-07T09:52:58;19.10;99.90
23289;DHT22;11813;50.834;4.280;2023-05-07T09:55:24;19.20;99.90
23289;DHT22;11813;50.834;4.280;2023-05-07T09:57:51;19.10;99.90
23289;DHT22;11813;50.834;4.280;2023-05-07T10:00:19;19.00;99.90
23289;DHT22;11813;50.834;4.280;2023-05-07T10:02:50;19.00;99.90
23289;DHT22;11813;50.834;4.280;2023-05-07T10:05:18;18.90;99.90
23289;DHT22;11813;50.834;4.280;2023-05-07T10:07:46;18.70;99.90
23289;DHT22;11813;50.834;4.280;2023-05-07T10:10:12;18.70;99.90
23289;DHT22;11813;50.834;4.280;2023-05-07T10:12:38;18.80;99.90
23289;DHT22;11813;50.834;4.280;2023-05-07T10:15:07;18.90;99.90
23289;DHT22;11813;50.834;4.280;2023-05-07T10:17:38;18.90;99.90
23289;DHT22;11813;50.834;4.280;2023-05-07T10:20:05;18.90;99.90
23289;DHT22;11813;50.834;4.280;2023-05-07T10:22:51;18.90;99.90
23289;DHT22;11813;50.834;4.280;2023-05-07T10:25:25;18.90;99.90
23289;DHT22;11813;50.834;4.280;2023-05-07T10:27:52;18.90;99.90
23289;DHT22;11813;50.834;4.280;2023-05-07T10:30:58;18.90;99.90
23289;DHT22;11813;50.834;4.280;2023-05-07T10:33:29;18.90;99.90
23289;DHT22;11813;50.834;4.280;2023-05-07T10:36:00;19.00;99.90
23289;DHT22;11813;50.834;4.280;2023-05-07T10:38:27;19.00;99.90
23289;DHT22;11813;50.834;4.280;2023-05-07T10:40:53;19.20;99.90
23289;DHT22;11813;50.834;4.280;2023-05-07T10:43:19;19.30;99.90
23289;DHT22;11813;50.834;4.280;2023-05-07T10:46:11;19.40;99.90
23289;DHT22;11813;50.834;4.280;2023-05-07T10:49:13;19.50;99.90
23289;DHT22;11813;50.834;4.280;2023-05-07T10:51:39;19.60;99.90
23289;DHT22;11813;50.834;4.280;2023-05-07T10:56:40;19.50;99.90
23289;DHT22;11813;50.834;4.280;2023-05-07T11:02:04;19.20;99.90
23289;DHT22;11813;50.834;4.280;2023-05-07T11:04:31;19.30;99.90
23289;DHT22;11813;50.834;4.280;2023-05-07T11:09:54;19.30;99.90
23289;DHT22;11813;50.834;4.280;2023-05-07T11:17:34;19.40;99.90
23289;DHT22;11813;50.834;4.280;2023-05-07T11:20:01;19.50;99.90
23289;DHT22;11813;50.834;4.280;2023-05-07T11:24:56;19.60;99.90
23289;DHT22;11813;50.834;4.280;2023-05-07T11:27:29;19.70;99.90
23289;DHT22;11813;50.834;4.280;2023-05-07T11:29:55;19.90;99.90
23289;DHT22;11813;50.834;4.280;2023-05-07T11:32:24;20.00;99.90
23289;DHT22;11813;50.834;4.280;2023-05-07T11:34:54;19.90;99.90
23289;DHT22;11813;50.834;4.280;2023-05-07T11:37:21;19.90;99.90
23289;DHT22;11813;50.834;4.280;2023-05-07T11:39:48;20.00;99.90
23289;DHT22;11813;50.834;4.280;2023-05-07T11:42:34;20.10;99.90
23289;DHT22;11813;50.834;4.280;2023-05-07T11:45:00;20.20;99.90
23289;DHT22;11813;50.834;4.280;2023-05-07T11:47:29;20.10;99.90
23289;DHT22;11813;50.834;4.280;2023-05-07T11:49:55;20.10;99.90
23289;DHT22;11813;50.834;4.280;2023-05-07T11:52:22;20.20;99.90
23289;DHT22;11813;50.834;4.280;2023-05-07T11:54:52;20.20;99.90
23289;DHT22;11813;50.834;4.280;2023-05-07T11:57:19;20.20;99.90
23289;DHT22;11813;50.834;4.280;2023-05-07T11:59:45;20.10;99.90
23289;DHT22;11813;50.834;4.280;2023-05-07T12:02:14;20.30;99.90
23289;DHT22;11813;50.834;4.280;2023-05-07T12:04:41;20.30;99.90
23289;DHT22;11813;50.834;4.280;2023-05-07T12:07:16;20.40;99.90
23289;DHT22;11813;50.834;4.280;2023-05-07T12:09:42;20.40;99.90
23289;DHT22;11813;50.834;4.280;2023-05-07T12:12:08;20.50;99.90
23289;DHT22;11813;50.834;4.280;2023-05-07T12:14:41;20.60;99.90
23289;DHT22;11813;50.834;4.280;2023-05-07T12:17:08;20.60;99.90
23289;DHT22;11813;50.834;4.280;2023-05-07T12:19:34;20.60;99.90
23289;DHT22;11813;50.834;4.280;2023-05-07T12:22:04;20.60;99.90
23289;DHT22;11813;50.834;4.280;2023-05-07T12:24:47;20.30;99.90
23289;DHT22;11813;50.834;4.280;2023-05-07T12:27:14;20.30;99.90
23289;DHT22;11813;50.834;4.280;2023-05-07T12:29:39;20.30;99.90
23289;DHT22;11813;50.834;4.280;2023-05-07T12:32:14;20.30;99.90
23289;DHT22;11813;50.834;4.280;2023-05-07T12:34:40;20.20;99.90
23289;DHT22;11813;50.834;4.280;2023-05-07T12:37:05;20.10;99.90
23289;DHT22;11813;50.834;4.280;2023-05-07T12:39:31;20.10;99.90
23289;DHT22;11813;50.834;4.280;2023-05-07T12:42:00;20.20;99.90
23289;DHT22;11813;50.834;4.280;2023-05-07T12:44:29;20.20;99.90
23289;DHT22;11813;50.834;4.280;2023-05-07T12:46:55;20.10;99.90
23289;DHT22;11813;50.834;4.280;2023-05-07T12:49:21;20.20;99.90
23289;DHT22;11813;50.834;4.280;2023-05-07T12:51:48;20.30;99.90
23289;DHT22;11813;50.834;4.280;2023-05-07T12:54:27;20.30;99.90
23289;DHT22;11813;50.834;4.280;2023-05-07T12:57:06;20.40;99.90
23289;DHT22;11813;50.834;4.280;2023-05-07T12:59:33;20.50;99.90
23289;DHT22;11813;50.834;4.280;2023-05-07T13:01:59;20.70;99.90
23289;DHT22;11813;50.834;4.280;2023-05-07T13:04:25;20.50;99.90
23289;DHT22;11813;50.834;4.280;2023-05-07T13:06:51;20.20;99.90
23289;DHT22;11813;50.834;4.280;2023-05-07T13:09:16;20.40;99.90
23289;DHT22;11813;50.834;4.280;2023-05-07T13:11:42;20.40;99.90
23289;DHT22;11813;50.834;4.280;2023-05-07T13:14:07;20.40;99.90
23289;DHT22;11813;50.834;4.280;2023-05-07T13:16:33;20.40;99.90
23289;DHT22;11813;50.834;4.280;2023-05-07T13:18:59;20.40;99.90
23289;DHT22;11813;50.834;4.280;2023-05-07T13:21:25;20.30;99.90
23289;DHT22;11813;50.834;4.280;2023-05-07T13:23:52;20.30;99.90
23289;DHT22;11813;50.834;4.280;2023-05-07T13:26:18;20.40;99.90
23289;DHT22;11813;50.834;4.280;2023-05-07T13:28:43;20.50;99.90
23289;DHT22;11813;50.834;4.280;2023-05-07T13:31:09;20.60;99.90
23289;DHT22;11813;50.834;4.280;2023-05-07T13:33:35;20.60;99.90
23289;DHT22;11813;50.834;4.280;2023-05-07T13:36:01;20.50;99.90
23289;DHT22;11813;50.834;4.280;2023-05-07T13:38:29;20.40;99.90
23289;DHT22;11813;50.834;4.280;2023-05-07T13:40:55;20.50;99.90
23289;DHT22;11813;50.834;4.280;2023-05-07T13:43:21;20.50;99.90
23289;DHT22;11813;50.834;4.280;2023-05-07T13:45:46;20.40;99.90
23289;DHT22;11813;50.834;4.280;2023-05-07T13:48:12;20.50;99.90
23289;DHT22;11813;50.834;4.280;2023-05-07T13:50:37;20.50;99.90
23289;DHT22;11813;50.834;4.280;2023-05-07T13:53:03;20.60;99.90
23289;DHT22;11813;50.834;4.280;2023-05-07T13:55:29;20.50;99.90
23289;DHT22;11813;50.834;4.280;2023-05-07T13:58:02;20.50;99.90
23289;DHT22;11813;50.834;4.280;2023-05-07T14:00:29;20.60;99.90
23289;DHT22;11813;50.834;4.280;2023-05-07T14:02:55;20.70;99.90
23289;DHT22;11813;50.834;4.280;2023-05-07T14:05:21;20.80;99.90
23289;DHT22;11813;50.834;4.280;2023-05-07T14:07:51;20.60;99.90
23289;DHT22;11813;50.834;4.280;2023-05-07T14:10:17;20.40;99.90
23289;DHT22;11813;50.834;4.280;2023-05-07T14:12:44;20.30;99.90
23289;DHT22;11813;50.834;4.280;2023-05-07T14:15:11;20.50;99.90
23289;DHT22;11813;50.834;4.280;2023-05-07T14:17:37;20.50;99.90
23289;DHT22;11813;50.834;4.280;2023-05-07T14:20:02;20.60;99.90
23289;DHT22;11813;50.834;4.280;2023-05-07T14:22:28;20.60;99.90
23289;DHT22;11813;50.834;4.280;2023-05-07T14:24:54;20.50;99.90
23289;DHT22;11813;50.834;4.280;2023-05-07T14:27:20;20.50;99.90
23289;DHT22;11813;50.834;4.280;2023-05-07T14:29:45;20.50;99.90
23289;DHT22;11813;50.834;4.280;2023-05-07T14:32:18;20.30;99.90
23289;DHT22;11813;50.834;4.280;2023-05-07T14:34:45;20.40;99.90
23289;DHT22;11813;50.834;4.280;2023-05-07T14:37:11;20.50;99.90
23289;DHT22;11813;50.834;4.280;2023-05-07T14:39:36;20.40;99.90
23289;DHT22;11813;50.834;4.280;2023-05-07T14:42:02;20.20;99.90
23289;DHT22;11813;50.834;4.280;2023-05-07T14:44:28;20.20;99.90
23289;DHT22;11813;50.834;4.280;2023-05-07T14:46:54;20.30;99.90
23289;DHT22;11813;50.834;4.280;2023-05-07T14:49:20;20.40;99.90
23289;DHT22;11813;50.834;4.280;2023-05-07T14:51:46;20.30;99.90
23289;DHT22;11813;50.834;4.280;2023-05-07T14:54:13;20.40;99.90
23289;DHT22;11813;50.834;4.280;2023-05-07T14:56:39;20.60;99.90
23289;DHT22;11813;50.834;4.280;2023-05-07T14:59:07;20.60;99.90
23289;DHT22;11813;50.834;4.280;2023-05-07T15:01:35;20.70;99.90
23289;DHT22;11813;50.834;4.280;2023-05-07T15:04:02;20.70;99.90
23289;DHT22;11813;50.834;4.280;2023-05-07T15:06:28;20.50;99.90
23289;DHT22;11813;50.834;4.280;2023-05-07T15:08:54;20.40;99.90
23289;DHT22;11813;50.834;4.280;2023-05-07T15:11:20;20.40;99.90
23289;DHT22;11813;50.834;4.280;2023-05-07T15:13:45;20.50;99.90
23289;DHT22;11813;50.834;4.280;2023-05-07T15:16:11;20.40;99.90
23289;DHT22;11813;50.834;4.280;2023-05-07T15:18:36;20.40;99.90
23289;DHT22;11813;50.834;4.280;2023-05-07T15:21:02;20.30;99.90
23289;DHT22;11813;50.834;4.280;2023-05-07T15:23:28;20.40;99.90
23289;DHT22;11813;50.834;4.280;2023-05-07T15:25:54;20.40;99.90
23289;DHT22;11813;50.834;4.280;2023-05-07T15:28:19;20.30;99.90
23289;DHT22;11813;50.834;4.280;2023-05-07T15:30:45;20.20;99.90
23289;DHT22;11813;50.834;4.280;2023-05-07T15:33:11;20.20;99.90
23289;DHT22;11813;50.834;4.280;2023-05-07T15:35:36;20.10;99.90
23289;DHT22;11813;50.834;4.280;2023-05-07T15:38:02;20.10;99.90
23289;DHT22;11813;50.834;4.280;2023-05-07T15:40:29;20.10;99.90
23289;DHT22;11813;50.834;4.280;2023-05-07T15:42:55;20.10;99.90